Watts, California
Current Conditions -  °F | °C
As of 9:53 PM on Tuesday 27 Jan 2015 (Local Time) from KHHR Reporting Station
Clear Clear  
Wind Chill: 60°   Ceiling: Unl
Heat Index: 60°   Visibility: 10mi
Dew Point: 55°   Wind: 0mph
Humidity: 83%   Direction: NA
Pressure: 30.17"   Gusts: NA
Location:  33.9535°N, 118.291°W
Report Text: KHHR 280553Z AUTO 00000KT 10SM CLR 16/13 A3017 RMK AO2 SLP215 T01560128 10200 20156 58001
Loading
Personal Weather Stations






























Interactive Weather Map New forecast layout! Learn more

10-Day Weather Forecast

Advertisements
Track Severe Weather on mobile